createdAt,value
2022-10-30T00:00:19.028Z,21.42
2022-10-30T00:00:50.419Z,21.41
2022-10-30T00:01:21.868Z,21.42
2022-10-30T00:01:53.404Z,21.41
2022-10-30T00:02:25.045Z,21.40
2022-10-30T00:02:56.944Z,21.41
2022-10-30T00:03:28.757Z,21.40
2022-10-30T00:04:00.152Z,21.38
2022-10-30T00:04:31.580Z,21.41
2022-10-30T00:05:02.987Z,21.41
2022-10-30T00:05:34.371Z,21.39
2022-10-30T00:06:05.855Z,21.38
2022-10-30T00:06:37.288Z,21.38
2022-10-30T00:07:08.687Z,21.38
2022-10-30T00:07:40.176Z,21.39
2022-10-30T00:08:11.569Z,21.36
2022-10-30T00:08:42.974Z,21.38
2022-10-30T00:09:14.386Z,21.37
2022-10-30T00:09:45.797Z,21.36
2022-10-30T00:10:17.210Z,21.37
2022-10-30T00:10:48.604Z,21.36
2022-10-30T00:11:20.020Z,21.36
2022-10-30T00:11:51.407Z,21.36
2022-10-30T00:12:22.798Z,21.34
2022-10-30T00:12:54.227Z,21.36
2022-10-30T00:13:25.614Z,21.34
2022-10-30T00:13:57.023Z,21.35
2022-10-30T00:14:28.429Z,21.35
2022-10-30T00:14:59.831Z,21.33
2022-10-30T00:15:31.229Z,21.33
2022-10-30T00:16:02.618Z,21.33
2022-10-30T00:16:34.008Z,21.33
2022-10-30T00:17:05.390Z,21.32
2022-10-30T00:17:36.784Z,21.33
2022-10-30T00:18:08.285Z,21.33
2022-10-30T00:18:39.676Z,21.33
2022-10-30T00:19:11.101Z,21.33
2022-10-30T00:19:42.486Z,21.32
2022-10-30T00:20:13.868Z,21.32
2022-10-30T00:20:45.272Z,21.31
2022-10-30T00:21:16.713Z,21.31
2022-10-30T00:21:48.115Z,21.30
2022-10-30T00:22:19.505Z,21.31
2022-10-30T00:22:50.899Z,21.31
2022-10-30T00:23:22.288Z,21.29
2022-10-30T00:23:53.710Z,21.29
2022-10-30T00:24:25.095Z,21.30
2022-10-30T00:24:56.497Z,21.30
2022-10-30T00:25:27.891Z,21.29
2022-10-30T00:25:59.275Z,21.29
2022-10-30T00:26:30.780Z,21.27
2022-10-30T00:27:02.179Z,21.29
2022-10-30T00:27:33.570Z,21.27
2022-10-30T00:28:04.960Z,21.27
2022-10-30T00:28:36.355Z,21.26
2022-10-30T00:29:07.765Z,21.25
2022-10-30T00:29:39.169Z,21.26
2022-10-30T00:30:10.574Z,21.26
2022-10-30T00:30:41.963Z,21.27
2022-10-30T00:31:13.347Z,21.27
2022-10-30T00:31:44.932Z,21.26
2022-10-30T00:32:16.321Z,21.25
2022-10-30T00:32:47.717Z,21.25
2022-10-30T00:33:19.107Z,21.23
2022-10-30T00:33:50.491Z,21.24
2022-10-30T00:34:21.898Z,21.24
2022-10-30T00:34:53.282Z,21.25
2022-10-30T00:35:24.687Z,21.23
2022-10-30T00:35:56.098Z,21.24
2022-10-30T00:36:27.486Z,21.23
2022-10-30T00:36:58.981Z,21.24
2022-10-30T00:37:30.375Z,21.22
2022-10-30T00:38:02.057Z,21.22
2022-10-30T00:38:33.650Z,21.22
2022-10-30T00:39:05.058Z,21.21
2022-10-30T00:39:36.450Z,21.21
2022-10-30T00:40:07.838Z,21.20
2022-10-30T00:40:39.229Z,21.21
2022-10-30T00:41:10.631Z,21.18
2022-10-30T00:41:42.018Z,21.20
2022-10-30T00:42:13.479Z,21.20
2022-10-30T00:42:44.885Z,21.20
2022-10-30T00:43:16.267Z,21.19
2022-10-30T00:43:47.667Z,21.20
2022-10-30T00:44:19.091Z,21.20
2022-10-30T00:44:50.488Z,21.20
2022-10-30T00:45:21.898Z,21.19
2022-10-30T00:45:53.286Z,21.19
2022-10-30T00:46:24.695Z,21.19
2022-10-30T00:46:56.179Z,21.18
2022-10-30T00:47:27.573Z,21.18
2022-10-30T00:47:59.364Z,21.18
2022-10-30T00:48:30.949Z,21.19
2022-10-30T00:49:02.341Z,21.19
2022-10-30T00:49:33.735Z,21.19
2022-10-30T00:50:05.156Z,21.19
2022-10-30T00:50:36.558Z,21.18
2022-10-30T00:51:07.943Z,21.18
2022-10-30T00:51:39.333Z,21.19
2022-10-30T00:52:10.768Z,21.17
2022-10-30T00:52:42.176Z,21.18
2022-10-30T00:53:13.584Z,21.17
2022-10-30T00:53:44.975Z,21.17
2022-10-30T00:54:16.365Z,21.17
2022-10-30T00:54:47.839Z,21.17
2022-10-30T00:55:19.256Z,21.18
2022-10-30T00:55:50.643Z,21.18
2022-10-30T00:56:22.032Z,21.17
2022-10-30T00:56:53.425Z,21.16
2022-10-30T00:57:24.930Z,21.17
2022-10-30T00:57:56.322Z,21.17
2022-10-30T00:58:27.771Z,21.17
2022-10-30T00:58:59.173Z,21.17
2022-10-30T00:59:30.583Z,21.16
2022-10-30T01:00:01.976Z,21.17
2022-10-30T01:00:33.367Z,21.16
2022-10-30T01:01:04.776Z,21.17
2022-10-30T01:01:36.248Z,21.16
2022-10-30T01:02:07.849Z,21.16
2022-10-30T01:02:39.446Z,21.16
2022-10-30T01:03:10.903Z,21.16
2022-10-30T01:03:42.294Z,21.15
2022-10-30T01:04:13.687Z,21.16
2022-10-30T01:04:45.084Z,21.14
2022-10-30T01:05:16.480Z,21.15
2022-10-30T01:05:47.869Z,21.16
2022-10-30T01:06:19.279Z,21.14
2022-10-30T01:06:50.897Z,21.14
2022-10-30T01:07:22.438Z,21.14
2022-10-30T01:07:53.832Z,21.13
2022-10-30T01:08:25.287Z,21.14
2022-10-30T01:08:59.852Z,21.12
2022-10-30T01:09:31.895Z,21.11
2022-10-30T01:10:03.303Z,21.12
2022-10-30T01:10:34.696Z,21.11
2022-10-30T01:11:06.095Z,21.09
2022-10-30T01:11:37.537Z,21.11
2022-10-30T01:12:08.955Z,21.08
2022-10-30T01:12:40.492Z,21.08
2022-10-30T01:13:11.893Z,21.07
2022-10-30T01:13:43.284Z,21.06
2022-10-30T01:14:14.672Z,21.05
2022-10-30T01:14:46.063Z,21.06
2022-10-30T01:15:17.468Z,21.05
2022-10-30T01:15:48.858Z,21.06
2022-10-30T01:16:20.265Z,21.05
2022-10-30T01:16:51.649Z,21.04
2022-10-30T01:17:23.030Z,21.04
2022-10-30T01:17:54.661Z,21.03
2022-10-30T01:18:26.210Z,21.01
2022-10-30T01:18:57.600Z,21.01
2022-10-30T01:19:28.991Z,21.01
2022-10-30T01:20:36.662Z,21.02
2022-10-30T01:21:08.046Z,21.03
2022-10-30T01:21:39.439Z,21.02
2022-10-30T01:22:10.859Z,21.00
2022-10-30T01:22:42.271Z,20.99
2022-10-30T01:23:13.717Z,20.98
2022-10-30T01:23:45.106Z,20.97
2022-10-30T01:24:16.503Z,20.98
2022-10-30T01:24:47.906Z,20.96
2022-10-30T01:25:19.323Z,20.98
2022-10-30T01:25:50.715Z,20.97
2022-10-30T01:26:22.107Z,20.98
2022-10-30T01:26:53.504Z,20.96
2022-10-30T01:27:24.912Z,20.96
2022-10-30T01:27:56.298Z,20.97
2022-10-30T01:28:27.777Z,20.95
2022-10-30T01:28:59.186Z,20.94
2022-10-30T01:29:30.574Z,20.95
2022-10-30T01:30:01.971Z,20.94
2022-10-30T01:30:33.363Z,20.92
2022-10-30T01:31:04.759Z,20.93
2022-10-30T01:31:36.146Z,20.93
2022-10-30T01:32:07.554Z,20.94
2022-10-30T01:32:38.955Z,20.95
2022-10-30T01:33:10.348Z,20.93
2022-10-30T01:33:41.836Z,20.92
2022-10-30T01:34:13.225Z,20.92
2022-10-30T01:34:44.617Z,20.93
2022-10-30T01:35:16.038Z,20.91
2022-10-30T01:35:47.443Z,20.91
2022-10-30T01:36:18.843Z,20.92
2022-10-30T01:36:50.247Z,20.93
2022-10-30T01:37:21.659Z,20.94
2022-10-30T01:37:53.064Z,20.93
2022-10-30T01:38:24.462Z,20.91
2022-10-30T01:38:55.994Z,20.92
2022-10-30T01:39:27.387Z,20.91
2022-10-30T01:39:58.799Z,20.92
2022-10-30T01:40:30.190Z,20.90
2022-10-30T01:41:01.583Z,20.89
2022-10-30T01:41:32.994Z,20.90
2022-10-30T01:42:04.396Z,20.90
2022-10-30T01:42:35.782Z,20.89
2022-10-30T01:43:07.186Z,20.90
2022-10-30T01:43:38.604Z,20.89
2022-10-30T01:44:10.157Z,20.86
2022-10-30T01:44:41.541Z,20.88
2022-10-30T01:45:12.957Z,20.87
2022-10-30T01:45:44.367Z,20.88
2022-10-30T01:46:15.773Z,20.89
2022-10-30T01:46:47.158Z,20.87
2022-10-30T01:47:18.547Z,20.87
2022-10-30T01:47:49.957Z,20.87
2022-10-30T01:48:21.359Z,20.84
2022-10-30T01:48:52.752Z,20.86
2022-10-30T01:50:00.499Z,20.84
2022-10-30T01:50:31.909Z,20.85
2022-10-30T01:51:03.306Z,20.86
2022-10-30T01:51:34.695Z,20.86
2022-10-30T01:52:06.131Z,20.85
2022-10-30T01:52:37.523Z,20.85
2022-10-30T01:53:09.006Z,20.84
2022-10-30T01:53:40.397Z,20.85
2022-10-30T01:54:11.790Z,20.84
2022-10-30T01:54:43.219Z,20.85
2022-10-30T01:55:14.612Z,20.85
2022-10-30T01:55:46.012Z,20.85
2022-10-30T01:56:17.426Z,20.83
2022-10-30T01:56:48.827Z,20.84
2022-10-30T01:57:20.219Z,20.82
2022-10-30T01:57:51.632Z,20.84
2022-10-30T01:58:23.038Z,20.82
2022-10-30T01:58:54.431Z,20.83
2022-10-30T01:59:25.836Z,20.82
2022-10-30T01:59:57.356Z,20.81
2022-10-30T02:00:28.746Z,20.82
2022-10-30T02:01:00.201Z,20.80
2022-10-30T02:01:31.737Z,20.80
2022-10-30T02:02:03.362Z,20.81
2022-10-30T02:02:35.148Z,20.81
2022-10-30T02:03:06.660Z,20.82
2022-10-30T02:03:38.081Z,20.78
2022-10-30T02:04:09.578Z,20.79
2022-10-30T02:04:40.993Z,20.79
2022-10-30T02:05:12.424Z,20.80
2022-10-30T02:05:43.824Z,20.80
2022-10-30T02:06:15.229Z,20.80
2022-10-30T02:06:46.634Z,20.79
2022-10-30T02:07:18.052Z,20.77
2022-10-30T02:07:49.476Z,20.77
2022-10-30T02:08:20.867Z,20.77
2022-10-30T02:08:52.267Z,20.77
2022-10-30T02:09:23.767Z,20.78
2022-10-30T02:09:55.156Z,20.79
2022-10-30T02:10:26.544Z,20.78
2022-10-30T02:10:57.938Z,20.77
2022-10-30T02:11:29.323Z,20.77
2022-10-30T02:12:00.738Z,20.77
2022-10-30T02:12:32.131Z,20.78
2022-10-30T02:13:03.536Z,20.77
2022-10-30T02:13:34.922Z,20.76
2022-10-30T02:14:06.312Z,20.76
2022-10-30T02:14:37.799Z,20.73
2022-10-30T02:15:09.204Z,20.73
2022-10-30T02:15:40.613Z,20.75
2022-10-30T02:16:12.044Z,20.75
2022-10-30T02:16:43.454Z,20.73
2022-10-30T02:17:14.843Z,20.74
2022-10-30T02:17:46.235Z,20.76
2022-10-30T02:18:17.618Z,20.74
2022-10-30T02:18:49.059Z,20.72
2022-10-30T02:19:20.449Z,20.71
2022-10-30T02:19:51.952Z,20.71
2022-10-30T02:20:23.361Z,20.71
2022-10-30T02:20:54.773Z,20.70
2022-10-30T02:21:26.173Z,20.71
2022-10-30T02:21:57.587Z,20.71
2022-10-30T02:22:29.170Z,20.72
2022-10-30T02:23:00.823Z,20.71
2022-10-30T02:23:32.496Z,20.71
2022-10-30T02:24:03.916Z,20.68
2022-10-30T02:24:35.307Z,20.70
2022-10-30T02:25:06.822Z,20.70
2022-10-30T02:25:38.227Z,20.69
2022-10-30T02:26:09.629Z,20.69
2022-10-30T02:26:41.019Z,20.67
2022-10-30T02:27:12.433Z,20.68
2022-10-30T02:27:43.819Z,20.68
2022-10-30T02:28:15.226Z,20.68
2022-10-30T02:28:46.627Z,20.69
2022-10-30T02:29:18.023Z,20.68
2022-10-30T02:29:49.406Z,20.66
2022-10-30T02:30:20.986Z,20.66
2022-10-30T02:30:52.430Z,20.67
2022-10-30T02:31:23.976Z,20.65
2022-10-30T02:31:55.359Z,20.66
2022-10-30T02:32:26.762Z,20.68
2022-10-30T02:32:58.326Z,20.66
2022-10-30T02:33:29.906Z,20.66
2022-10-30T02:34:01.291Z,20.66
2022-10-30T02:34:32.715Z,20.65
2022-10-30T02:35:04.112Z,20.66
2022-10-30T02:35:35.543Z,20.65
2022-10-30T02:36:06.934Z,20.65
2022-10-30T02:36:38.324Z,20.67
2022-10-30T02:37:09.715Z,20.65
2022-10-30T02:37:41.162Z,20.63
2022-10-30T02:38:12.567Z,20.64
2022-10-30T02:38:43.959Z,20.64
2022-10-30T02:39:15.346Z,20.65
2022-10-30T02:39:46.776Z,20.63
2022-10-30T02:40:18.188Z,20.64
2022-10-30T02:40:49.608Z,20.64
2022-10-30T02:41:21.000Z,20.64
2022-10-30T02:41:52.415Z,20.64
2022-10-30T02:42:23.803Z,20.64
2022-10-30T02:42:55.191Z,20.64
2022-10-30T02:43:26.703Z,20.64
2022-10-30T02:43:58.085Z,20.62
2022-10-30T02:44:29.494Z,20.62
2022-10-30T02:45:00.907Z,20.62
2022-10-30T02:45:32.348Z,20.62
2022-10-30T02:46:03.741Z,20.63
2022-10-30T02:46:35.152Z,20.64
2022-10-30T02:47:06.556Z,20.63
2022-10-30T02:47:37.943Z,20.62
2022-10-30T02:48:41.638Z,20.59
2022-10-30T02:49:13.052Z,20.60
2022-10-30T02:49:44.463Z,20.60
2022-10-30T02:50:15.860Z,20.59
2022-10-30T02:50:47.246Z,20.58
2022-10-30T02:51:18.641Z,20.58
2022-10-30T02:51:50.033Z,20.58
2022-10-30T02:52:21.426Z,20.58
2022-10-30T02:52:52.815Z,20.57
2022-10-30T02:53:24.218Z,20.57
2022-10-30T02:53:55.656Z,20.58
2022-10-30T02:54:27.062Z,20.59
2022-10-30T02:54:58.447Z,20.59
2022-10-30T02:55:29.846Z,20.59
2022-10-30T02:56:01.268Z,20.60
2022-10-30T02:56:32.653Z,20.59
2022-10-30T02:57:04.040Z,20.58
2022-10-30T02:57:35.441Z,20.59
2022-10-30T02:58:06.840Z,20.59
2022-10-30T02:58:38.241Z,20.59
2022-10-30T02:59:09.699Z,20.57
2022-10-30T02:59:41.112Z,20.55
2022-10-30T03:00:12.497Z,20.57
2022-10-30T03:00:43.887Z,20.57
2022-10-30T03:01:15.418Z,20.57
2022-10-30T03:01:46.977Z,20.56
2022-10-30T03:02:18.502Z,20.57
2022-10-30T03:02:49.986Z,20.58
2022-10-30T03:03:24.051Z,20.57
2022-10-30T03:03:55.762Z,20.58
2022-10-30T03:04:27.248Z,20.56
2022-10-30T03:04:58.646Z,20.55
2022-10-30T03:05:30.050Z,20.54
2022-10-30T03:06:01.446Z,20.55
2022-10-30T03:06:32.862Z,20.52
2022-10-30T03:07:04.256Z,20.54
2022-10-30T03:07:35.661Z,20.54
2022-10-30T03:08:07.043Z,20.53
2022-10-30T03:08:38.430Z,20.53
2022-10-30T03:09:09.820Z,20.52
2022-10-30T03:09:41.299Z,20.51
2022-10-30T03:10:12.688Z,20.52
2022-10-30T03:10:44.097Z,20.52
2022-10-30T03:11:15.512Z,20.50
2022-10-30T03:11:46.921Z,20.49
2022-10-30T03:12:18.324Z,20.51
2022-10-30T03:12:49.731Z,20.52
2022-10-30T03:13:21.115Z,20.53
2022-10-30T03:13:52.508Z,20.51
2022-10-30T03:14:23.904Z,20.51
2022-10-30T03:14:55.371Z,20.51
2022-10-30T03:15:26.770Z,20.52
2022-10-30T03:15:58.157Z,20.51
2022-10-30T03:16:29.563Z,20.50
2022-10-30T03:17:00.990Z,20.50
2022-10-30T03:17:32.404Z,20.48
2022-10-30T03:18:03.887Z,20.50
2022-10-30T03:18:35.280Z,20.50
2022-10-30T03:19:06.669Z,20.49
2022-10-30T03:19:38.055Z,20.50
2022-10-30T03:20:09.536Z,20.49
2022-10-30T03:20:40.943Z,20.49
2022-10-30T03:21:12.336Z,20.49
2022-10-30T03:21:43.751Z,20.49
2022-10-30T03:22:15.137Z,20.49
2022-10-30T03:22:46.530Z,20.50
2022-10-30T03:23:17.916Z,20.51
2022-10-30T03:23:49.323Z,20.49
2022-10-30T03:24:20.772Z,20.50
2022-10-30T03:24:52.163Z,20.50
2022-10-30T03:25:24.046Z,20.50
2022-10-30T03:25:55.671Z,20.50
2022-10-30T03:26:27.058Z,20.50
2022-10-30T03:26:58.444Z,20.49
2022-10-30T03:27:29.835Z,20.49
2022-10-30T03:28:01.626Z,20.48
2022-10-30T03:28:33.206Z,20.48
2022-10-30T03:29:04.597Z,20.49
2022-10-30T03:29:35.993Z,20.48
2022-10-30T03:30:07.378Z,20.47
2022-10-30T03:30:38.834Z,20.48
2022-10-30T03:31:10.260Z,20.46
2022-10-30T03:31:41.656Z,20.46
2022-10-30T03:32:13.125Z,20.47
2022-10-30T03:32:44.685Z,20.47
2022-10-30T03:33:16.087Z,20.46
2022-10-30T03:33:47.472Z,20.46
2022-10-30T03:34:18.883Z,20.45
2022-10-30T03:34:50.293Z,20.47
2022-10-30T03:35:21.715Z,20.45
2022-10-30T03:35:53.142Z,20.44
2022-10-30T03:36:24.600Z,20.46
2022-10-30T03:36:55.984Z,20.47
2022-10-30T03:37:27.393Z,20.44
2022-10-30T03:37:58.800Z,20.44
2022-10-30T03:38:30.207Z,20.45
2022-10-30T03:39:01.598Z,20.44
2022-10-30T03:39:32.990Z,20.44
2022-10-30T03:40:04.389Z,20.44
2022-10-30T03:40:35.780Z,20.45
2022-10-30T03:41:07.303Z,20.44
2022-10-30T03:41:38.688Z,20.43
2022-10-30T03:42:10.086Z,20.45
2022-10-30T03:42:41.509Z,20.46
2022-10-30T03:43:12.904Z,20.44
2022-10-30T03:43:44.344Z,20.45
2022-10-30T03:44:15.728Z,20.45
2022-10-30T03:44:47.128Z,20.44
2022-10-30T03:45:18.534Z,20.44
2022-10-30T03:45:49.927Z,20.42
2022-10-30T03:46:21.359Z,20.44
2022-10-30T03:46:52.742Z,20.43
2022-10-30T03:47:24.137Z,20.43
2022-10-30T03:47:56.092Z,20.44
2022-10-30T03:48:27.754Z,20.43
2022-10-30T03:48:59.158Z,20.42
2022-10-30T03:49:30.567Z,20.41
2022-10-30T03:50:01.984Z,20.41
2022-10-30T03:50:33.374Z,20.42
2022-10-30T03:51:04.823Z,20.43
2022-10-30T03:51:36.334Z,20.41
2022-10-30T03:52:07.724Z,20.39
2022-10-30T03:52:39.115Z,20.41
2022-10-30T03:53:10.503Z,20.40
2022-10-30T03:53:41.890Z,20.40
2022-10-30T03:54:13.284Z,20.40
2022-10-30T03:54:44.680Z,20.41
2022-10-30T03:55:16.087Z,20.41
2022-10-30T03:55:47.477Z,20.40
2022-10-30T03:56:18.963Z,20.41
2022-10-30T03:56:50.356Z,20.40
2022-10-30T03:57:21.748Z,20.40
2022-10-30T03:57:53.137Z,20.40
2022-10-30T03:58:24.538Z,20.41
2022-10-30T03:58:55.927Z,20.39
2022-10-30T03:59:27.306Z,20.40
2022-10-30T03:59:58.718Z,20.39
2022-10-30T04:00:30.115Z,20.40
2022-10-30T04:01:01.658Z,20.40
2022-10-30T04:01:33.386Z,20.39
2022-10-30T04:02:05.206Z,20.39
2022-10-30T04:02:36.726Z,20.40
2022-10-30T04:03:08.106Z,20.39
2022-10-30T04:03:39.497Z,20.39
2022-10-30T04:04:10.884Z,20.39
2022-10-30T04:04:42.281Z,20.39
2022-10-30T04:05:13.687Z,20.39
2022-10-30T04:05:45.078Z,20.40
2022-10-30T04:06:16.823Z,20.39
2022-10-30T04:06:48.253Z,20.37
2022-10-30T04:07:19.664Z,20.38
2022-10-30T04:07:51.077Z,20.39
2022-10-30T04:08:22.465Z,20.38
2022-10-30T04:08:53.864Z,20.36
2022-10-30T04:09:25.245Z,20.36
2022-10-30T04:09:56.641Z,20.37
2022-10-30T04:10:28.026Z,20.36
2022-10-30T04:10:59.474Z,20.37
2022-10-30T04:11:30.994Z,20.36
2022-10-30T04:12:02.485Z,20.36
2022-10-30T04:12:33.875Z,20.36
2022-10-30T04:13:05.295Z,20.36
2022-10-30T04:13:36.691Z,20.36
2022-10-30T04:14:08.074Z,20.36
2022-10-30T04:14:39.469Z,20.36
2022-10-30T04:15:10.850Z,20.36
2022-10-30T04:15:42.239Z,20.35
2022-10-30T04:16:13.651Z,20.36
2022-10-30T04:16:45.090Z,20.35
2022-10-30T04:17:16.499Z,20.35
2022-10-30T04:17:47.901Z,20.35
2022-10-30T04:18:19.288Z,20.35
2022-10-30T04:18:50.714Z,20.35
2022-10-30T04:19:22.101Z,20.35
2022-10-30T04:19:53.502Z,20.35
2022-10-30T04:20:24.946Z,20.34
2022-10-30T04:20:56.330Z,20.34
2022-10-30T04:21:27.749Z,20.34
2022-10-30T04:21:59.253Z,20.34
2022-10-30T04:22:30.638Z,20.33
2022-10-30T04:23:02.023Z,20.33
2022-10-30T04:23:33.413Z,20.33
2022-10-30T04:24:04.806Z,20.34
2022-10-30T04:24:36.197Z,20.34
2022-10-30T04:25:07.595Z,20.33
2022-10-30T04:25:38.988Z,20.32
2022-10-30T04:26:10.374Z,20.33
2022-10-30T04:26:41.777Z,20.34
2022-10-30T04:27:13.210Z,20.33
2022-10-30T04:27:44.594Z,20.32
2022-10-30T04:28:15.978Z,20.30
2022-10-30T04:28:47.371Z,20.32
2022-10-30T04:29:18.767Z,20.31
2022-10-30T04:29:50.151Z,20.32
2022-10-30T04:30:21.541Z,20.32
2022-10-30T04:30:52.935Z,20.32
2022-10-30T04:31:24.325Z,20.32
2022-10-30T04:31:55.738Z,20.32
2022-10-30T04:32:27.299Z,20.31
2022-10-30T04:32:58.921Z,20.32
2022-10-30T04:33:30.531Z,20.31
2022-10-30T04:34:01.919Z,20.31
2022-10-30T04:34:33.319Z,20.31
2022-10-30T04:35:04.726Z,20.31
2022-10-30T04:35:36.147Z,20.30
2022-10-30T04:36:07.543Z,20.29
2022-10-30T04:36:38.943Z,20.29
2022-10-30T04:37:10.343Z,20.29
2022-10-30T04:37:41.868Z,20.29
2022-10-30T04:38:13.268Z,20.29
2022-10-30T04:38:44.678Z,20.28
2022-10-30T04:39:16.072Z,20.28
2022-10-30T04:39:47.468Z,20.28
2022-10-30T04:40:18.853Z,20.29
2022-10-30T04:40:50.239Z,20.28
2022-10-30T04:41:21.636Z,20.28
2022-10-30T04:41:53.090Z,20.28
2022-10-30T04:42:24.479Z,20.29
2022-10-30T04:42:56.081Z,20.28
2022-10-30T04:43:27.653Z,20.27
2022-10-30T04:43:59.045Z,20.28
2022-10-30T04:44:30.436Z,20.28
2022-10-30T04:45:04.852Z,20.27
2022-10-30T04:45:36.598Z,20.27
2022-10-30T04:46:08.427Z,20.26
2022-10-30T04:46:39.815Z,20.27
2022-10-30T04:47:11.197Z,20.28
2022-10-30T04:47:42.653Z,20.25
2022-10-30T04:48:14.073Z,20.25
2022-10-30T04:48:45.469Z,20.26
2022-10-30T04:49:16.935Z,20.26
2022-10-30T04:49:48.349Z,20.25
2022-10-30T04:50:19.740Z,20.25
2022-10-30T04:50:51.122Z,20.23
2022-10-30T04:51:22.589Z,20.21
2022-10-30T04:51:53.992Z,20.23
2022-10-30T04:52:25.408Z,20.22
2022-10-30T04:52:56.799Z,20.22
2022-10-30T04:53:28.179Z,20.21
2022-10-30T04:53:59.599Z,20.23
2022-10-30T04:54:30.988Z,20.22
2022-10-30T04:55:02.400Z,20.23
2022-10-30T04:55:33.823Z,20.22
2022-10-30T04:56:05.231Z,20.23
2022-10-30T04:56:36.650Z,20.21
2022-10-30T04:57:08.057Z,20.22
2022-10-30T04:57:39.447Z,20.22
2022-10-30T04:58:10.834Z,20.22
2022-10-30T04:58:42.224Z,20.21
2022-10-30T04:59:13.609Z,20.22
2022-10-30T04:59:45.017Z,20.21
2022-10-30T05:00:16.423Z,20.21
2022-10-30T05:00:47.806Z,20.21
2022-10-30T05:01:19.289Z,20.21
2022-10-30T05:01:50.947Z,20.21
2022-10-30T05:02:22.494Z,20.21
2022-10-30T05:02:53.996Z,20.21
2022-10-30T05:03:25.395Z,20.20
2022-10-30T05:03:56.788Z,20.21
2022-10-30T05:04:28.188Z,20.20
2022-10-30T05:04:59.578Z,20.20
2022-10-30T05:05:30.967Z,20.21
2022-10-30T05:06:02.356Z,20.21
2022-10-30T05:06:33.834Z,20.20
2022-10-30T05:07:05.224Z,20.19
2022-10-30T05:07:36.613Z,20.18
2022-10-30T05:08:07.990Z,20.19
2022-10-30T05:08:39.391Z,20.19
2022-10-30T05:09:10.791Z,20.19
2022-10-30T05:09:42.182Z,20.19
2022-10-30T05:10:13.594Z,20.19
2022-10-30T05:10:44.979Z,20.17
2022-10-30T05:11:16.368Z,20.18
2022-10-30T05:11:47.893Z,20.18
2022-10-30T05:12:19.288Z,20.18
2022-10-30T05:12:50.680Z,20.18
2022-10-30T05:13:22.091Z,20.17
2022-10-30T05:13:53.482Z,20.17
2022-10-30T05:14:24.884Z,20.17
2022-10-30T05:14:56.275Z,20.17
2022-10-30T05:15:27.672Z,20.17
2022-10-30T05:15:59.063Z,20.18
2022-10-30T05:16:30.452Z,20.16
2022-10-30T05:17:01.954Z,20.16
2022-10-30T05:17:33.372Z,20.16
2022-10-30T05:18:04.759Z,20.17
2022-10-30T05:18:36.154Z,20.16
2022-10-30T05:19:07.542Z,20.17
2022-10-30T05:19:38.956Z,20.16
2022-10-30T05:20:13.459Z,20.15
2022-10-30T05:20:47.677Z,20.15
2022-10-30T05:21:19.081Z,20.16
2022-10-30T05:21:50.478Z,20.16
2022-10-30T05:22:21.951Z,20.15
2022-10-30T05:22:53.440Z,20.14
2022-10-30T05:23:24.849Z,20.14
2022-10-30T05:23:56.240Z,20.15
2022-10-30T05:24:27.629Z,20.13
2022-10-30T05:24:59.070Z,20.15
2022-10-30T05:25:30.454Z,20.15
2022-10-30T05:26:01.843Z,20.15
2022-10-30T05:26:33.238Z,20.15
2022-10-30T05:27:04.674Z,20.13
2022-10-30T05:27:36.130Z,20.13
2022-10-30T05:28:07.534Z,20.13
2022-10-30T05:28:38.948Z,20.13
2022-10-30T05:29:10.341Z,20.14
2022-10-30T05:29:41.747Z,20.13
2022-10-30T05:30:13.132Z,20.13
2022-10-30T05:30:44.529Z,20.13
2022-10-30T05:31:15.926Z,20.12
2022-10-30T05:31:47.318Z,20.12
2022-10-30T05:32:18.708Z,20.12
2022-10-30T05:32:50.118Z,20.12
2022-10-30T05:33:23.376Z,20.12
2022-10-30T05:33:54.974Z,20.12
2022-10-30T05:34:26.371Z,20.11
2022-10-30T05:34:57.780Z,20.12
2022-10-30T05:35:29.401Z,20.12
2022-10-30T05:36:00.967Z,20.10
2022-10-30T05:36:32.366Z,20.11
2022-10-30T05:37:03.759Z,20.11
2022-10-30T05:37:35.259Z,20.11
2022-10-30T05:38:06.642Z,20.10
2022-10-30T05:38:38.040Z,20.11
2022-10-30T05:39:09.428Z,20.11
2022-10-30T05:39:40.829Z,20.10
2022-10-30T05:40:12.241Z,20.11
2022-10-30T05:40:43.626Z,20.10
2022-10-30T05:41:15.034Z,20.10
2022-10-30T05:41:46.519Z,20.10
2022-10-30T05:42:17.925Z,20.08
2022-10-30T05:42:49.449Z,20.10
2022-10-30T05:43:20.872Z,20.08
2022-10-30T05:43:52.407Z,20.09
2022-10-30T05:44:40.435Z,20.08
2022-10-30T05:45:12.082Z,20.08
2022-10-30T05:45:43.479Z,20.08
2022-10-30T05:46:14.937Z,20.08
2022-10-30T05:46:46.384Z,20.08
2022-10-30T05:47:17.788Z,20.08
2022-10-30T05:47:49.182Z,20.08
2022-10-30T05:48:20.596Z,20.08
2022-10-30T05:48:51.998Z,20.08
2022-10-30T05:49:23.456Z,20.07
2022-10-30T05:49:54.878Z,20.08
2022-10-30T05:50:26.279Z,20.08
2022-10-30T05:50:57.699Z,20.07
2022-10-30T05:51:29.107Z,20.07
2022-10-30T05:52:00.505Z,20.07
2022-10-30T05:52:31.887Z,20.06
2022-10-30T05:53:03.299Z,20.07
2022-10-30T05:53:34.727Z,20.06
2022-10-30T05:54:06.128Z,20.06
2022-10-30T05:54:37.524Z,20.06
2022-10-30T05:55:08.912Z,20.06
2022-10-30T05:55:40.314Z,20.06
2022-10-30T05:56:11.713Z,20.05
2022-10-30T05:56:43.104Z,20.06
2022-10-30T05:57:14.489Z,20.06
2022-10-30T05:57:45.870Z,20.07
2022-10-30T05:58:17.259Z,20.06
2022-10-30T05:58:48.706Z,20.05
2022-10-30T05:59:20.118Z,20.06
2022-10-30T05:59:51.513Z,20.06
2022-10-30T06:00:22.927Z,20.05
2022-10-30T06:00:54.340Z,20.06
2022-10-30T06:01:25.850Z,20.04
2022-10-30T06:01:57.323Z,20.05
2022-10-30T06:02:28.804Z,20.05
2022-10-30T06:03:00.826Z,20.05
2022-10-30T06:03:32.835Z,20.05
2022-10-30T06:04:04.297Z,20.04
2022-10-30T06:04:35.690Z,20.04
2022-10-30T06:05:07.105Z,20.04
2022-10-30T06:05:38.497Z,20.05
2022-10-30T06:06:09.951Z,20.04
2022-10-30T06:06:41.354Z,20.05
2022-10-30T06:07:12.757Z,20.03
2022-10-30T06:07:44.152Z,20.03
2022-10-30T06:08:15.545Z,20.03
2022-10-30T06:08:46.947Z,20.04
2022-10-30T06:09:18.456Z,20.04
2022-10-30T06:09:49.850Z,20.04
2022-10-30T06:10:21.237Z,20.04
2022-10-30T06:10:52.628Z,20.04
2022-10-30T06:11:24.031Z,20.04
2022-10-30T06:11:55.424Z,20.04
2022-10-30T06:12:26.819Z,20.03
2022-10-30T06:12:58.405Z,20.04
2022-10-30T06:13:30.063Z,20.04
2022-10-30T06:14:01.452Z,20.03
2022-10-30T06:14:32.926Z,20.03
2022-10-30T06:15:04.327Z,20.03
2022-10-30T06:15:35.722Z,20.04
2022-10-30T06:16:07.116Z,20.03
2022-10-30T06:16:38.513Z,20.03
2022-10-30T06:17:09.925Z,20.03
2022-10-30T06:17:41.306Z,20.03
2022-10-30T06:18:12.715Z,20.03
2022-10-30T06:18:44.128Z,20.04
2022-10-30T06:19:18.608Z,20.04
2022-10-30T06:19:50.485Z,20.04
2022-10-30T06:20:21.872Z,20.04
2022-10-30T06:20:53.263Z,20.03
2022-10-30T06:21:24.702Z,20.03
2022-10-30T06:21:56.097Z,20.02
2022-10-30T06:22:27.497Z,20.03
2022-10-30T06:22:58.918Z,20.02
2022-10-30T06:23:30.302Z,20.03
2022-10-30T06:24:01.707Z,20.03
2022-10-30T06:24:33.139Z,20.02
2022-10-30T06:25:04.546Z,20.03
2022-10-30T06:25:40.713Z,20.02
2022-10-30T06:26:12.840Z,20.03
2022-10-30T06:26:44.226Z,20.02
2022-10-30T06:27:15.638Z,20.02
2022-10-30T06:27:47.031Z,20.03
2022-10-30T06:28:18.432Z,20.03
2022-10-30T06:28:49.914Z,20.02
2022-10-30T06:29:21.299Z,20.03
2022-10-30T06:29:52.746Z,20.02
2022-10-30T06:30:24.138Z,20.03
2022-10-30T06:30:55.555Z,20.02
2022-10-30T06:31:26.950Z,20.02
2022-10-30T06:31:59.800Z,20.03
2022-10-30T06:32:34.042Z,20.03
2022-10-30T06:33:08.248Z,20.03
2022-10-30T06:33:40.136Z,20.02
2022-10-30T06:34:12.207Z,20.03
2022-10-30T06:34:44.630Z,20.03
2022-10-30T06:35:16.111Z,20.03
2022-10-30T06:35:47.512Z,20.03
2022-10-30T06:36:18.898Z,20.02
2022-10-30T06:36:50.334Z,20.02
2022-10-30T06:37:21.836Z,20.03
2022-10-30T06:37:53.282Z,20.02
2022-10-30T06:38:24.691Z,20.02
2022-10-30T06:38:56.081Z,20.03
2022-10-30T06:39:27.474Z,20.01
2022-10-30T06:39:58.865Z,20.03
2022-10-30T06:40:30.371Z,20.02
2022-10-30T06:41:02.187Z,20.02
2022-10-30T06:41:34.068Z,20.02
2022-10-30T06:42:05.956Z,20.01
2022-10-30T06:42:37.783Z,20.02
2022-10-30T06:43:09.617Z,20.02
2022-10-30T06:43:41.103Z,20.01
2022-10-30T06:44:12.531Z,20.02
2022-10-30T06:44:43.931Z,20.02
2022-10-30T06:45:19.289Z,20.01
2022-10-30T06:45:54.758Z,20.01
2022-10-30T06:46:30.532Z,20.01
2022-10-30T06:47:05.630Z,20.01
2022-10-30T06:47:37.026Z,20.01